Terminal Aerodrome Forecast
Issued by NWS

Home | Current Version | Previous Version | Text Only | Print | Product List | Glossary On
Versions: 1 2 3 4 5 6 7 8 9 10 11 12 13 14 15 16 17 18 19 20 21 22 23 24
000
FTUS45 KBOU 191121
TAFBJC
TAF
KBJC 191121Z 1912/2012 29005KT P6SM FEW220
     FM191800 02007KT P6SM FEW140 SCT220
     FM200200 VRB04KT P6SM FEW220
     FM200900 25010KT P6SM SCT220=

USA.gov is the U.S. government's official web portal to all federal, state and local government web resources and services.